sensor_id;sensor_type;location;lat;lon;timestamp;temperature;humidity
23143;DHT22;11740;51.168;4.112;2022-11-15T00:00:54;8.90;99.90
23143;DHT22;11740;51.168;4.112;2022-11-15T00:03:22;8.90;99.90
23143;DHT22;11740;51.168;4.112;2022-11-15T00:05:51;8.80;99.90
23143;DHT22;11740;51.168;4.112;2022-11-15T00:08:18;9.00;99.90
23143;DHT22;11740;51.168;4.112;2022-11-15T00:10:55;9.00;99.90
23143;DHT22;11740;51.168;4.112;2022-11-15T00:13:23;8.90;99.90
23143;DHT22;11740;51.168;4.112;2022-11-15T00:15:50;9.00;99.90
23143;DHT22;11740;51.168;4.112;2022-11-15T00:18:16;9.00;99.90
23143;DHT22;11740;51.168;4.112;2022-11-15T00:20:44;9.20;99.90
23143;DHT22;11740;51.168;4.112;2022-11-15T00:23:11;9.10;99.90
23143;DHT22;11740;51.168;4.112;2022-11-15T00:25:38;9.20;99.90
23143;DHT22;11740;51.168;4.112;2022-11-15T00:28:04;9.20;99.90
23143;DHT22;11740;51.168;4.112;2022-11-15T00:30:31;9.20;99.90
23143;DHT22;11740;51.168;4.112;2022-11-15T00:33:02;9.30;99.90
23143;DHT22;11740;51.168;4.112;2022-11-15T00:35:33;9.30;99.90
23143;DHT22;11740;51.168;4.112;2022-11-15T00:38:00;9.40;99.90
23143;DHT22;11740;51.168;4.112;2022-11-15T00:40:28;9.40;99.90
23143;DHT22;11740;51.168;4.112;2022-11-15T00:42:55;9.50;99.90
23143;DHT22;11740;51.168;4.112;2022-11-15T00:45:22;9.40;99.90
23143;DHT22;11740;51.168;4.112;2022-11-15T00:47:49;9.40;99.90
23143;DHT22;11740;51.168;4.112;2022-11-15T00:50:16;9.50;99.90
23143;DHT22;11740;51.168;4.112;2022-11-15T00:52:43;9.50;99.90
23143;DHT22;11740;51.168;4.112;2022-11-15T00:55:14;9.50;99.90
23143;DHT22;11740;51.168;4.112;2022-11-15T00:57:42;9.50;99.90
23143;DHT22;11740;51.168;4.112;2022-11-15T01:00:09;9.40;99.90
23143;DHT22;11740;51.168;4.112;2022-11-15T01:02:37;9.50;99.90
23143;DHT22;11740;51.168;4.112;2022-11-15T01:05:04;9.40;99.90
23143;DHT22;11740;51.168;4.112;2022-11-15T01:07:31;9.50;99.90
23143;DHT22;11740;51.168;4.112;2022-11-15T01:09:58;9.40;99.90
23143;DHT22;11740;51.168;4.112;2022-11-15T01:12:24;9.50;99.90
23143;DHT22;11740;51.168;4.112;2022-11-15T01:14:51;9.40;99.90
23143;DHT22;11740;51.168;4.112;2022-11-15T01:17:18;9.50;99.90
23143;DHT22;11740;51.168;4.112;2022-11-15T01:19:45;9.50;99.90
23143;DHT22;11740;51.168;4.112;2022-11-15T01:22:12;9.50;99.90
23143;DHT22;11740;51.168;4.112;2022-11-15T01:24:39;9.50;99.90
23143;DHT22;11740;51.168;4.112;2022-11-15T01:27:05;9.50;99.90
23143;DHT22;11740;51.168;4.112;2022-11-15T01:29:32;9.50;99.90
23143;DHT22;11740;51.168;4.112;2022-11-15T01:31:59;9.60;99.90
23143;DHT22;11740;51.168;4.112;2022-11-15T01:34:26;9.50;99.90
23143;DHT22;11740;51.168;4.112;2022-11-15T01:36:53;9.60;99.90
23143;DHT22;11740;51.168;4.112;2022-11-15T01:39:19;9.70;99.90
23143;DHT22;11740;51.168;4.112;2022-11-15T01:41:46;9.70;99.90
23143;DHT22;11740;51.168;4.112;2022-11-15T01:46:58;9.70;99.90
23143;DHT22;11740;51.168;4.112;2022-11-15T01:49:27;9.70;99.90
23143;DHT22;11740;51.168;4.112;2022-11-15T01:51:57;9.70;99.90
23143;DHT22;11740;51.168;4.112;2022-11-15T01:54:26;9.80;99.90
23143;DHT22;11740;51.168;4.112;2022-11-15T01:56:54;9.80;99.90
23143;DHT22;11740;51.168;4.112;2022-11-15T01:59:31;9.80;99.90
23143;DHT22;11740;51.168;4.112;2022-11-15T02:01:58;9.90;1.00
23143;DHT22;11740;51.168;4.112;2022-11-15T02:06:55;9.80;1.00
23143;DHT22;11740;51.168;4.112;2022-11-15T02:09:22;9.90;1.00
23143;DHT22;11740;51.168;4.112;2022-11-15T02:11:49;9.80;1.00
23143;DHT22;11740;51.168;4.112;2022-11-15T02:14:18;9.90;1.00
23143;DHT22;11740;51.168;4.112;2022-11-15T02:22:16;9.90;1.00
23143;DHT22;11740;51.168;4.112;2022-11-15T02:27:59;10.00;1.00
23143;DHT22;11740;51.168;4.112;2022-11-15T02:33:41;10.00;99.90
23143;DHT22;11740;51.168;4.112;2022-11-15T02:37:00;10.00;99.90
23143;DHT22;11740;51.168;4.112;2022-11-15T02:39:56;10.00;99.90
23143;DHT22;11740;51.168;4.112;2022-11-15T02:42:08;10.00;99.90
23143;DHT22;11740;51.168;4.112;2022-11-15T02:44:58;10.00;99.90
23143;DHT22;11740;51.168;4.112;2022-11-15T02:47:34;10.00;99.90
23143;DHT22;11740;51.168;4.112;2022-11-15T02:50:10;10.00;99.90
23143;DHT22;11740;51.168;4.112;2022-11-15T02:52:37;10.00;99.90
23143;DHT22;11740;51.168;4.112;2022-11-15T02:55:04;10.00;99.90
23143;DHT22;11740;51.168;4.112;2022-11-15T02:57:45;10.10;99.90
23143;DHT22;11740;51.168;4.112;2022-11-15T03:00:17;10.00;99.90
23143;DHT22;11740;51.168;4.112;2022-11-15T03:11:13;10.00;99.90
23143;DHT22;11740;51.168;4.112;2022-11-15T03:13:57;10.00;99.90
23143;DHT22;11740;51.168;4.112;2022-11-15T03:17:22;10.10;99.90
23143;DHT22;11740;51.168;4.112;2022-11-15T03:20:12;10.10;99.90
23143;DHT22;11740;51.168;4.112;2022-11-15T03:22:58;10.10;99.90
23143;DHT22;11740;51.168;4.112;2022-11-15T03:25:27;10.10;99.90
23143;DHT22;11740;51.168;4.112;2022-11-15T03:27:55;10.00;99.90
23143;DHT22;11740;51.168;4.112;2022-11-15T03:30:25;10.00;99.90
23143;DHT22;11740;51.168;4.112;2022-11-15T03:32:53;10.00;99.90
23143;DHT22;11740;51.168;4.112;2022-11-15T03:35:24;10.10;99.90
23143;DHT22;11740;51.168;4.112;2022-11-15T03:40:20;10.00;99.90
23143;DHT22;11740;51.168;4.112;2022-11-15T03:43:10;10.10;99.90
23143;DHT22;11740;51.168;4.112;2022-11-15T03:46:01;10.10;99.90
23143;DHT22;11740;51.168;4.112;2022-11-15T03:48:30;10.20;99.90
23143;DHT22;11740;51.168;4.112;2022-11-15T03:51:02;10.10;99.90
23143;DHT22;11740;51.168;4.112;2022-11-15T03:53:29;10.20;99.90
23143;DHT22;11740;51.168;4.112;2022-11-15T03:55:58;10.10;99.90
23143;DHT22;11740;51.168;4.112;2022-11-15T03:58:25;10.20;99.90
23143;DHT22;11740;51.168;4.112;2022-11-15T04:00:51;10.10;99.90
23143;DHT22;11740;51.168;4.112;2022-11-15T04:03:18;10.10;99.90
23143;DHT22;11740;51.168;4.112;2022-11-15T04:05:46;10.10;99.90
23143;DHT22;11740;51.168;4.112;2022-11-15T04:08:13;10.10;99.90
23143;DHT22;11740;51.168;4.112;2022-11-15T04:10:39;10.10;99.90
23143;DHT22;11740;51.168;4.112;2022-11-15T04:13:06;10.00;99.90
23143;DHT22;11740;51.168;4.112;2022-11-15T04:15:33;10.10;99.90
23143;DHT22;11740;51.168;4.112;2022-11-15T04:18:00;10.10;99.90
23143;DHT22;11740;51.168;4.112;2022-11-15T04:20:28;10.00;99.90
23143;DHT22;11740;51.168;4.112;2022-11-15T04:23:21;10.00;99.90
23143;DHT22;11740;51.168;4.112;2022-11-15T04:26:17;10.00;99.90
23143;DHT22;11740;51.168;4.112;2022-11-15T04:28:46;10.00;99.90
23143;DHT22;11740;51.168;4.112;2022-11-15T04:31:31;10.00;99.90
23143;DHT22;11740;51.168;4.112;2022-11-15T04:33:58;10.00;63.20
23143;DHT22;11740;51.168;4.112;2022-11-15T04:36:25;9.90;56.70
23143;DHT22;11740;51.168;4.112;2022-11-15T04:39:11;10.00;64.70
23143;DHT22;11740;51.168;4.112;2022-11-15T04:41:38;10.00;20.00
23143;DHT22;11740;51.168;4.112;2022-11-15T04:44:04;10.00;3.80
23143;DHT22;11740;51.168;4.112;2022-11-15T04:46:32;10.00;12.50
23143;DHT22;11740;51.168;4.112;2022-11-15T04:48:59;9.90;1.00
23143;DHT22;11740;51.168;4.112;2022-11-15T04:51:25;10.00;1.00
23143;DHT22;11740;51.168;4.112;2022-11-15T04:53:52;9.90;1.00
23143;DHT22;11740;51.168;4.112;2022-11-15T04:56:19;9.90;1.00
23143;DHT22;11740;51.168;4.112;2022-11-15T04:58:48;9.90;1.00
23143;DHT22;11740;51.168;4.112;2022-11-15T05:01:16;9.90;1.00
23143;DHT22;11740;51.168;4.112;2022-11-15T05:03:43;9.80;1.00
23143;DHT22;11740;51.168;4.112;2022-11-15T05:06:28;9.80;1.00
23143;DHT22;11740;51.168;4.112;2022-11-15T05:08:56;9.80;1.00
23143;DHT22;11740;51.168;4.112;2022-11-15T05:11:23;9.80;1.00
23143;DHT22;11740;51.168;4.112;2022-11-15T05:13:50;9.80;1.00
23143;DHT22;11740;51.168;4.112;2022-11-15T05:16:16;9.80;1.00
23143;DHT22;11740;51.168;4.112;2022-11-15T05:18:43;9.80;1.00
23143;DHT22;11740;51.168;4.112;2022-11-15T05:21:11;9.70;1.00
23143;DHT22;11740;51.168;4.112;2022-11-15T05:23:39;9.70;1.00
23143;DHT22;11740;51.168;4.112;2022-11-15T05:26:07;9.70;1.00
23143;DHT22;11740;51.168;4.112;2022-11-15T05:28:35;9.70;1.00
23143;DHT22;11740;51.168;4.112;2022-11-15T05:31:03;9.60;1.00
23143;DHT22;11740;51.168;4.112;2022-11-15T05:33:31;9.60;99.90
23143;DHT22;11740;51.168;4.112;2022-11-15T05:36:04;9.50;99.90
23143;DHT22;11740;51.168;4.112;2022-11-15T05:38:32;9.50;99.90
23143;DHT22;11740;51.168;4.112;2022-11-15T05:41:02;9.50;99.90
23143;DHT22;11740;51.168;4.112;2022-11-15T05:43:29;9.50;99.90
23143;DHT22;11740;51.168;4.112;2022-11-15T05:45:57;9.50;99.90
23143;DHT22;11740;51.168;4.112;2022-11-15T05:48:24;9.50;99.90
23143;DHT22;11740;51.168;4.112;2022-11-15T05:50:51;9.40;99.90
23143;DHT22;11740;51.168;4.112;2022-11-15T05:53:19;9.40;99.90
23143;DHT22;11740;51.168;4.112;2022-11-15T05:55:47;9.40;99.90
23143;DHT22;11740;51.168;4.112;2022-11-15T05:58:14;9.40;99.90
23143;DHT22;11740;51.168;4.112;2022-11-15T06:00:41;9.30;99.90
23143;DHT22;11740;51.168;4.112;2022-11-15T06:03:09;9.30;99.90
23143;DHT22;11740;51.168;4.112;2022-11-15T06:05:36;9.30;99.90
23143;DHT22;11740;51.168;4.112;2022-11-15T06:08:03;9.30;99.90
23143;DHT22;11740;51.168;4.112;2022-11-15T06:10:30;9.30;99.90
23143;DHT22;11740;51.168;4.112;2022-11-15T06:13:00;9.30;99.90
23143;DHT22;11740;51.168;4.112;2022-11-15T06:15:28;9.30;99.90
23143;DHT22;11740;51.168;4.112;2022-11-15T06:17:56;9.20;99.90
23143;DHT22;11740;51.168;4.112;2022-11-15T06:20:24;9.30;99.90
23143;DHT22;11740;51.168;4.112;2022-11-15T06:22:56;9.30;99.90
23143;DHT22;11740;51.168;4.112;2022-11-15T06:25:27;9.20;99.90
23143;DHT22;11740;51.168;4.112;2022-11-15T06:27:55;9.20;99.90
23143;DHT22;11740;51.168;4.112;2022-11-15T06:30:23;9.20;99.90
23143;DHT22;11740;51.168;4.112;2022-11-15T06:32:50;9.20;99.90
23143;DHT22;11740;51.168;4.112;2022-11-15T06:35:17;9.20;99.90
23143;DHT22;11740;51.168;4.112;2022-11-15T06:37:44;9.20;99.90
23143;DHT22;11740;51.168;4.112;2022-11-15T06:40:11;9.20;99.90
23143;DHT22;11740;51.168;4.112;2022-11-15T06:42:38;9.20;99.90
23143;DHT22;11740;51.168;4.112;2022-11-15T06:45:05;9.20;99.90
23143;DHT22;11740;51.168;4.112;2022-11-15T06:47:32;9.10;99.90
23143;DHT22;11740;51.168;4.112;2022-11-15T06:49:59;9.20;99.90
23143;DHT22;11740;51.168;4.112;2022-11-15T06:52:26;9.10;99.90
23143;DHT22;11740;51.168;4.112;2022-11-15T06:54:53;9.10;99.90
23143;DHT22;11740;51.168;4.112;2022-11-15T06:57:20;9.10;99.90
23143;DHT22;11740;51.168;4.112;2022-11-15T06:59:46;9.10;99.90
23143;DHT22;11740;51.168;4.112;2022-11-15T07:02:13;9.00;99.90
23143;DHT22;11740;51.168;4.112;2022-11-15T07:04:40;9.00;99.90
23143;DHT22;11740;51.168;4.112;2022-11-15T07:07:10;9.00;99.90
23143;DHT22;11740;51.168;4.112;2022-11-15T07:09:37;9.00;99.90
23143;DHT22;11740;51.168;4.112;2022-11-15T07:12:04;9.00;99.90
23143;DHT22;11740;51.168;4.112;2022-11-15T07:14:33;8.90;99.90
23143;DHT22;11740;51.168;4.112;2022-11-15T07:17:02;8.90;99.90
23143;DHT22;11740;51.168;4.112;2022-11-15T07:19:30;8.90;99.90
23143;DHT22;11740;51.168;4.112;2022-11-15T07:21:57;8.90;99.90
23143;DHT22;11740;51.168;4.112;2022-11-15T07:24:24;8.90;99.90
23143;DHT22;11740;51.168;4.112;2022-11-15T07:26:51;8.90;99.90
23143;DHT22;11740;51.168;4.112;2022-11-15T07:29:18;8.90;99.90
23143;DHT22;11740;51.168;4.112;2022-11-15T07:31:45;8.80;99.90
23143;DHT22;11740;51.168;4.112;2022-11-15T07:34:12;8.80;99.90
23143;DHT22;11740;51.168;4.112;2022-11-15T07:36:38;8.80;99.90
23143;DHT22;11740;51.168;4.112;2022-11-15T07:39:05;8.80;99.90
23143;DHT22;11740;51.168;4.112;2022-11-15T07:41:32;8.90;99.90
23143;DHT22;11740;51.168;4.112;2022-11-15T07:43:59;8.80;99.90
23143;DHT22;11740;51.168;4.112;2022-11-15T07:46:26;8.80;99.90
23143;DHT22;11740;51.168;4.112;2022-11-15T07:48:53;8.90;99.90
23143;DHT22;11740;51.168;4.112;2022-11-15T07:51:20;8.90;99.90
23143;DHT22;11740;51.168;4.112;2022-11-15T07:53:47;8.90;99.90
23143;DHT22;11740;51.168;4.112;2022-11-15T07:56:13;8.90;99.90
23143;DHT22;11740;51.168;4.112;2022-11-15T07:58:40;8.90;99.90
23143;DHT22;11740;51.168;4.112;2022-11-15T08:01:08;8.90;99.90
23143;DHT22;11740;51.168;4.112;2022-11-15T08:03:36;8.90;99.90
23143;DHT22;11740;51.168;4.112;2022-11-15T08:06:03;8.90;99.90
23143;DHT22;11740;51.168;4.112;2022-11-15T08:08:30;8.90;99.90
23143;DHT22;11740;51.168;4.112;2022-11-15T08:10:57;8.90;99.90
23143;DHT22;11740;51.168;4.112;2022-11-15T08:13:24;8.90;99.90
23143;DHT22;11740;51.168;4.112;2022-11-15T08:15:51;9.00;99.90
23143;DHT22;11740;51.168;4.112;2022-11-15T08:18:23;9.00;99.90
23143;DHT22;11740;51.168;4.112;2022-11-15T08:20:50;9.00;99.90
23143;DHT22;11740;51.168;4.112;2022-11-15T08:23:16;9.00;88.60
23143;DHT22;11740;51.168;4.112;2022-11-15T08:25:43;9.00;24.50
23143;DHT22;11740;51.168;4.112;2022-11-15T08:28:10;9.00;1.00
23143;DHT22;11740;51.168;4.112;2022-11-15T08:30:38;9.00;1.00
23143;DHT22;11740;51.168;4.112;2022-11-15T08:33:12;9.00;1.00
23143;DHT22;11740;51.168;4.112;2022-11-15T08:35:40;9.00;1.00
23143;DHT22;11740;51.168;4.112;2022-11-15T08:38:08;9.00;1.00
23143;DHT22;11740;51.168;4.112;2022-11-15T08:40:35;9.00;1.00
23143;DHT22;11740;51.168;4.112;2022-11-15T08:43:02;9.00;99.90
23143;DHT22;11740;51.168;4.112;2022-11-15T08:45:29;9.10;99.90
23143;DHT22;11740;51.168;4.112;2022-11-15T08:47:56;9.10;99.90
23143;DHT22;11740;51.168;4.112;2022-11-15T08:50:23;9.10;99.90
23143;DHT22;11740;51.168;4.112;2022-11-15T08:52:50;9.10;99.90
23143;DHT22;11740;51.168;4.112;2022-11-15T08:55:17;9.20;99.90
23143;DHT22;11740;51.168;4.112;2022-11-15T08:57:44;9.20;58.60
23143;DHT22;11740;51.168;4.112;2022-11-15T09:00:11;9.20;1.00
23143;DHT22;11740;51.168;4.112;2022-11-15T09:02:39;9.20;1.00
23143;DHT22;11740;51.168;4.112;2022-11-15T09:05:07;9.20;3.00
23143;DHT22;11740;51.168;4.112;2022-11-15T09:07:34;9.30;1.00
23143;DHT22;11740;51.168;4.112;2022-11-15T09:10:02;9.30;1.00
23143;DHT22;11740;51.168;4.112;2022-11-15T09:12:29;9.40;1.00
23143;DHT22;11740;51.168;4.112;2022-11-15T09:14:56;9.40;1.00
23143;DHT22;11740;51.168;4.112;2022-11-15T09:17:23;9.40;1.00
23143;DHT22;11740;51.168;4.112;2022-11-15T09:19:50;9.40;1.00
23143;DHT22;11740;51.168;4.112;2022-11-15T09:22:17;9.40;1.00
23143;DHT22;11740;51.168;4.112;2022-11-15T09:24:44;9.50;1.00
23143;DHT22;11740;51.168;4.112;2022-11-15T09:27:11;9.50;1.00
23143;DHT22;11740;51.168;4.112;2022-11-15T09:29:39;9.50;99.90
23143;DHT22;11740;51.168;4.112;2022-11-15T09:32:07;9.50;99.90
23143;DHT22;11740;51.168;4.112;2022-11-15T09:34:34;9.60;99.90
23143;DHT22;11740;51.168;4.112;2022-11-15T09:37:01;9.60;99.90
23143;DHT22;11740;51.168;4.112;2022-11-15T09:39:28;9.70;99.90
23143;DHT22;11740;51.168;4.112;2022-11-15T09:50:12;10.00;1.00
23143;DHT22;11740;51.168;4.112;2022-11-15T09:52:42;10.00;1.00
23143;DHT22;11740;51.168;4.112;2022-11-15T09:55:11;10.00;1.00
23143;DHT22;11740;51.168;4.112;2022-11-15T09:57:50;10.00;1.00
23143;DHT22;11740;51.168;4.112;2022-11-15T10:00:34;10.00;1.00
23143;DHT22;11740;51.168;4.112;2022-11-15T10:03:16;10.10;1.00
23143;DHT22;11740;51.168;4.112;2022-11-15T10:05:48;10.10;1.00
23143;DHT22;11740;51.168;4.112;2022-11-15T10:11:11;10.20;1.00
23143;DHT22;11740;51.168;4.112;2022-11-15T10:14:05;10.30;1.00
23143;DHT22;11740;51.168;4.112;2022-11-15T10:22:38;10.50;99.90
23143;DHT22;11740;51.168;4.112;2022-11-15T10:25:18;10.50;99.90
23143;DHT22;11740;51.168;4.112;2022-11-15T10:30:47;10.50;99.90
23143;DHT22;11740;51.168;4.112;2022-11-15T10:35:43;11.20;1.00
23143;DHT22;11740;51.168;4.112;2022-11-15T10:38:10;11.40;99.90
23143;DHT22;11740;51.168;4.112;2022-11-15T10:40:38;11.40;1.00
23143;DHT22;11740;51.168;4.112;2022-11-15T10:45:36;11.40;1.00
23143;DHT22;11740;51.168;4.112;2022-11-15T10:50:42;11.40;73.20
23143;DHT22;11740;51.168;4.112;2022-11-15T10:55:49;11.30;86.30
23143;DHT22;11740;51.168;4.112;2022-11-15T10:59:04;11.30;91.20
23143;DHT22;11740;51.168;4.112;2022-11-15T11:01:10;11.30;77.80
23143;DHT22;11740;51.168;4.112;2022-11-15T11:03:40;11.30;15.40
23143;DHT22;11740;51.168;4.112;2022-11-15T11:06:09;11.30;99.90
23143;DHT22;11740;51.168;4.112;2022-11-15T11:08:53;11.30;99.90
23143;DHT22;11740;51.168;4.112;2022-11-15T11:11:47;11.30;99.90
23143;DHT22;11740;51.168;4.112;2022-11-15T11:16:50;11.40;99.90
23143;DHT22;11740;51.168;4.112;2022-11-15T11:36:26;11.70;99.90
23143;DHT22;11740;51.168;4.112;2022-11-15T11:52:03;12.00;99.90
23143;DHT22;11740;51.168;4.112;2022-11-15T11:54:44;12.00;99.90
23143;DHT22;11740;51.168;4.112;2022-11-15T11:57:25;12.10;99.90
23143;DHT22;11740;51.168;4.112;2022-11-15T12:00:09;12.20;99.90
23143;DHT22;11740;51.168;4.112;2022-11-15T12:02:42;12.20;99.90
23143;DHT22;11740;51.168;4.112;2022-11-15T12:05:29;12.20;99.90
23143;DHT22;11740;51.168;4.112;2022-11-15T12:08:08;12.30;99.90
23143;DHT22;11740;51.168;4.112;2022-11-15T12:10:39;12.30;99.90
23143;DHT22;11740;51.168;4.112;2022-11-15T12:13:10;12.30;99.90
23143;DHT22;11740;51.168;4.112;2022-11-15T12:18:46;12.40;99.90
23143;DHT22;11740;51.168;4.112;2022-11-15T12:21:21;12.40;99.90
23143;DHT22;11740;51.168;4.112;2022-11-15T12:23:58;12.50;99.90
23143;DHT22;11740;51.168;4.112;2022-11-15T12:26:28;12.50;99.90
23143;DHT22;11740;51.168;4.112;2022-11-15T12:29:01;12.50;99.90
23143;DHT22;11740;51.168;4.112;2022-11-15T12:34:01;12.60;99.90
23143;DHT22;11740;51.168;4.112;2022-11-15T12:36:43;12.70;99.90
23143;DHT22;11740;51.168;4.112;2022-11-15T12:39:11;12.60;99.90
23143;DHT22;11740;51.168;4.112;2022-11-15T12:41:39;12.70;99.90
23143;DHT22;11740;51.168;4.112;2022-11-15T12:44:55;12.70;99.90
23143;DHT22;11740;51.168;4.112;2022-11-15T13:02:51;12.90;99.90
23143;DHT22;11740;51.168;4.112;2022-11-15T13:08:11;12.90;99.90
23143;DHT22;11740;51.168;4.112;2022-11-15T13:17:10;13.00;99.90
23143;DHT22;11740;51.168;4.112;2022-11-15T13:19:46;13.00;99.90
23143;DHT22;11740;51.168;4.112;2022-11-15T13:22:15;13.00;79.90
23143;DHT22;11740;51.168;4.112;2022-11-15T13:25:01;13.00;99.90
23143;DHT22;11740;51.168;4.112;2022-11-15T13:27:28;13.00;99.90
23143;DHT22;11740;51.168;4.112;2022-11-15T13:29:55;13.10;99.90
23143;DHT22;11740;51.168;4.112;2022-11-15T13:32:22;13.10;99.90
23143;DHT22;11740;51.168;4.112;2022-11-15T13:34:49;13.10;99.90
23143;DHT22;11740;51.168;4.112;2022-11-15T13:39:49;13.10;99.90
23143;DHT22;11740;51.168;4.112;2022-11-15T13:42:16;13.10;99.90
23143;DHT22;11740;51.168;4.112;2022-11-15T13:44:58;13.10;99.90
23143;DHT22;11740;51.168;4.112;2022-11-15T13:47:27;13.10;99.90
23143;DHT22;11740;51.168;4.112;2022-11-15T13:49:58;13.10;99.90
23143;DHT22;11740;51.168;4.112;2022-11-15T13:52:27;13.10;99.90
23143;DHT22;11740;51.168;4.112;2022-11-15T13:55:04;13.10;99.90
23143;DHT22;11740;51.168;4.112;2022-11-15T14:00:36;13.10;99.90
23143;DHT22;11740;51.168;4.112;2022-11-15T14:03:12;13.10;99.90
23143;DHT22;11740;51.168;4.112;2022-11-15T14:05:42;13.10;99.90
23143;DHT22;11740;51.168;4.112;2022-11-15T14:08:21;13.10;99.90
23143;DHT22;11740;51.168;4.112;2022-11-15T14:11:05;13.10;99.90
23143;DHT22;11740;51.168;4.112;2022-11-15T14:13:37;13.10;99.90
23143;DHT22;11740;51.168;4.112;2022-11-15T14:16:13;13.10;99.90
23143;DHT22;11740;51.168;4.112;2022-11-15T14:18:45;13.20;99.90
23143;DHT22;11740;51.168;4.112;2022-11-15T14:21:17;13.20;99.90
23143;DHT22;11740;51.168;4.112;2022-11-15T14:23:44;13.10;99.90
23143;DHT22;11740;51.168;4.112;2022-11-15T14:31:48;13.20;99.90
23143;DHT22;11740;51.168;4.112;2022-11-15T14:34:15;13.20;1.00
23143;DHT22;11740;51.168;4.112;2022-11-15T14:36:41;13.10;1.00
23143;DHT22;11740;51.168;4.112;2022-11-15T14:39:08;13.10;1.00
23143;DHT22;11740;51.168;4.112;2022-11-15T14:41:36;13.10;1.00
23143;DHT22;11740;51.168;4.112;2022-11-15T14:44:06;13.10;1.00
23143;DHT22;11740;51.168;4.112;2022-11-15T14:46:33;13.10;1.00
23143;DHT22;11740;51.168;4.112;2022-11-15T14:49:00;13.10;1.00
23143;DHT22;11740;51.168;4.112;2022-11-15T14:51:27;13.10;1.00
23143;DHT22;11740;51.168;4.112;2022-11-15T14:53:53;13.10;1.00
23143;DHT22;11740;51.168;4.112;2022-11-15T14:56:21;13.10;99.90
23143;DHT22;11740;51.168;4.112;2022-11-15T14:58:48;13.00;99.90
23143;DHT22;11740;51.168;4.112;2022-11-15T15:01:23;13.00;1.00
23143;DHT22;11740;51.168;4.112;2022-11-15T15:03:51;13.00;1.00
23143;DHT22;11740;51.168;4.112;2022-11-15T15:06:20;13.00;1.00
23143;DHT22;11740;51.168;4.112;2022-11-15T15:08:47;13.00;1.00
23143;DHT22;11740;51.168;4.112;2022-11-15T15:11:25;13.00;1.00
23143;DHT22;11740;51.168;4.112;2022-11-15T15:13:53;13.00;21.60
23143;DHT22;11740;51.168;4.112;2022-11-15T15:16:23;13.00;1.00
23143;DHT22;11740;51.168;4.112;2022-11-15T15:18:50;12.90;30.80
23143;DHT22;11740;51.168;4.112;2022-11-15T15:21:21;12.90;86.10
23143;DHT22;11740;51.168;4.112;2022-11-15T15:23:50;12.90;99.90
23143;DHT22;11740;51.168;4.112;2022-11-15T15:26:17;12.90;77.10
23143;DHT22;11740;51.168;4.112;2022-11-15T15:28:44;12.90;99.90
23143;DHT22;11740;51.168;4.112;2022-11-15T15:31:11;12.90;65.10
23143;DHT22;11740;51.168;4.112;2022-11-15T15:33:38;12.80;99.90
23143;DHT22;11740;51.168;4.112;2022-11-15T15:36:05;12.80;99.90
23143;DHT22;11740;51.168;4.112;2022-11-15T15:38:32;12.80;99.90
23143;DHT22;11740;51.168;4.112;2022-11-15T15:40:59;12.80;99.90
23143;DHT22;11740;51.168;4.112;2022-11-15T15:43:28;12.80;99.90
23143;DHT22;11740;51.168;4.112;2022-11-15T15:45:55;12.80;99.90
23143;DHT22;11740;51.168;4.112;2022-11-15T15:48:21;12.80;99.90
23143;DHT22;11740;51.168;4.112;2022-11-15T15:50:48;12.70;99.90
23143;DHT22;11740;51.168;4.112;2022-11-15T15:53:15;12.70;99.90
23143;DHT22;11740;51.168;4.112;2022-11-15T15:55:43;12.70;99.90
23143;DHT22;11740;51.168;4.112;2022-11-15T15:58:10;12.70;99.90
23143;DHT22;11740;51.168;4.112;2022-11-15T16:00:37;12.70;1.00
23143;DHT22;11740;51.168;4.112;2022-11-15T16:03:05;12.70;1.00
23143;DHT22;11740;51.168;4.112;2022-11-15T16:05:32;12.60;99.90
23143;DHT22;11740;51.168;4.112;2022-11-15T16:07:58;12.60;1.00
23143;DHT22;11740;51.168;4.112;2022-11-15T16:10:27;12.60;1.00
23143;DHT22;11740;51.168;4.112;2022-11-15T16:12:55;12.60;1.00
23143;DHT22;11740;51.168;4.112;2022-11-15T16:15:24;12.60;1.00
23143;DHT22;11740;51.168;4.112;2022-11-15T16:17:53;12.60;1.00
23143;DHT22;11740;51.168;4.112;2022-11-15T16:20:22;12.50;1.00
23143;DHT22;11740;51.168;4.112;2022-11-15T16:22:59;12.50;1.00
23143;DHT22;11740;51.168;4.112;2022-11-15T16:25:38;12.50;1.00
23143;DHT22;11740;51.168;4.112;2022-11-15T16:28:25;12.60;99.90
23143;DHT22;11740;51.168;4.112;2022-11-15T16:33:31;12.50;26.60
23143;DHT22;11740;51.168;4.112;2022-11-15T16:35:58;12.50;91.80
23143;DHT22;11740;51.168;4.112;2022-11-15T16:38:25;12.50;44.90
23143;DHT22;11740;51.168;4.112;2022-11-15T16:40:52;12.50;17.00
23143;DHT22;11740;51.168;4.112;2022-11-15T16:43:19;12.40;99.90
23143;DHT22;11740;51.168;4.112;2022-11-15T16:45:46;12.50;99.90
23143;DHT22;11740;51.168;4.112;2022-11-15T16:48:21;12.50;99.90
23143;DHT22;11740;51.168;4.112;2022-11-15T16:50:57;12.40;99.90
23143;DHT22;11740;51.168;4.112;2022-11-15T16:53:25;12.40;99.90
23143;DHT22;11740;51.168;4.112;2022-11-15T16:55:53;12.40;99.90
23143;DHT22;11740;51.168;4.112;2022-11-15T16:58:21;12.40;99.90
23143;DHT22;11740;51.168;4.112;2022-11-15T17:00:55;12.40;99.90
23143;DHT22;11740;51.168;4.112;2022-11-15T17:03:23;12.40;99.90
23143;DHT22;11740;51.168;4.112;2022-11-15T17:05:50;12.40;99.90
23143;DHT22;11740;51.168;4.112;2022-11-15T17:08:17;12.40;1.00
23143;DHT22;11740;51.168;4.112;2022-11-15T17:10:46;12.40;1.00
23143;DHT22;11740;51.168;4.112;2022-11-15T17:13:13;12.30;1.00
23143;DHT22;11740;51.168;4.112;2022-11-15T17:15:40;12.30;1.00
23143;DHT22;11740;51.168;4.112;2022-11-15T17:18:09;12.30;1.00
23143;DHT22;11740;51.168;4.112;2022-11-15T17:20:36;12.30;1.00
23143;DHT22;11740;51.168;4.112;2022-11-15T17:23:03;12.30;1.00
23143;DHT22;11740;51.168;4.112;2022-11-15T17:25:30;12.30;1.00
23143;DHT22;11740;51.168;4.112;2022-11-15T17:27:57;12.30;1.00
23143;DHT22;11740;51.168;4.112;2022-11-15T17:30:24;12.30;1.00
23143;DHT22;11740;51.168;4.112;2022-11-15T17:32:51;12.30;1.00
23143;DHT22;11740;51.168;4.112;2022-11-15T17:35:18;12.30;1.00
23143;DHT22;11740;51.168;4.112;2022-11-15T17:37:44;12.30;1.00
23143;DHT22;11740;51.168;4.112;2022-11-15T17:40:12;12.30;1.00
23143;DHT22;11740;51.168;4.112;2022-11-15T17:42:39;12.30;1.00
23143;DHT22;11740;51.168;4.112;2022-11-15T17:45:08;12.30;1.00
23143;DHT22;11740;51.168;4.112;2022-11-15T17:47:36;12.30;1.00
23143;DHT22;11740;51.168;4.112;2022-11-15T17:50:03;12.20;1.00
23143;DHT22;11740;51.168;4.112;2022-11-15T17:52:30;12.20;1.00
23143;DHT22;11740;51.168;4.112;2022-11-15T17:54:57;12.30;1.00
23143;DHT22;11740;51.168;4.112;2022-11-15T17:57:24;12.20;1.00
23143;DHT22;11740;51.168;4.112;2022-11-15T17:59:51;12.20;1.00
23143;DHT22;11740;51.168;4.112;2022-11-15T18:02:18;12.20;1.00
23143;DHT22;11740;51.168;4.112;2022-11-15T18:04:45;12.20;59.50
23143;DHT22;11740;51.168;4.112;2022-11-15T18:07:12;12.20;7.70
23143;DHT22;11740;51.168;4.112;2022-11-15T18:09:40;12.20;66.10
23143;DHT22;11740;51.168;4.112;2022-11-15T18:12:10;12.20;1.00
23143;DHT22;11740;51.168;4.112;2022-11-15T18:14:37;12.20;22.90